Time;durP1;ratioP1;P1;durP2;ratioP2;P2;SDS_P1;SDS_P2;PMS_P1;PMS_P2;Temp;Humidity;BMP_temperature;BMP_pressure;BME280_temperature;BME280_humidity;BME280_pressure;Samples;Min_cycle;Max_cycle;Signal;HPM_P1;HPM_P2
2021/06/28 00:00:22;;;;;;;8.43;5.47;;;;;;;22.79;57.76;97834.06;8248767;28;20285;-63
2021/06/28 00:04:24;;;;;;;9.07;5.53;;;;;;;22.77;57.80;97836.00;8249501;28;20202;-62
2021/06/28 00:08:27;;;;;;;6.60;5.90;;;;;;;22.74;58.13;97839.78;8249425;28;20245;-63
2021/06/28 00:12:31;;;;;;;6.13;5.53;;;;;;;22.78;58.27;97837.69;8274170;28;20252;-63
2021/06/28 00:16:34;;;;;;;6.67;5.57;;;;;;;22.79;58.53;97831.41;8281602;28;20205;-62
2021/06/28 00:20:38;;;;;;;6.33;5.73;;;;;;;22.73;58.82;97832.88;8281592;28;20232;-63
2021/06/28 00:24:41;;;;;;;7.30;5.70;;;;;;;22.71;58.67;97833.97;8281546;28;20370;-61
2021/06/28 00:28:45;;;;;;;7.40;5.10;;;;;;;22.62;58.31;97838.34;8281405;28;20233;-62
2021/06/28 00:32:48;;;;;;;8.13;5.17;;;;;;;22.57;58.51;97835.31;8281363;28;20243;-62
2021/06/28 00:36:51;;;;;;;5.57;5.07;;;;;;;22.58;58.56;97842.22;8281456;28;20211;-64
2021/06/28 00:40:54;;;;;;;7.17;5.57;;;;;;;22.56;58.27;97852.97;8281479;28;20500;-62
2021/06/28 00:44:58;;;;;;;6.07;5.47;;;;;;;22.51;58.17;97849.09;8281189;28;20211;-62
2021/06/28 00:49:01;;;;;;;9.10;6.50;;;;;;;22.41;58.59;97838.59;8285325;28;20531;-62
2021/06/28 00:53:06;;;;;;;8.33;6.13;;;;;;;22.33;58.89;97841.09;8287253;28;20209;-64
2021/06/28 00:57:09;;;;;;;8.33;5.67;;;;;;;22.30;58.88;97844.88;8275618;28;20400;-62
2021/06/28 01:01:13;;;;;;;9.03;5.77;;;;;;;22.43;58.99;97847.19;8254601;28;20215;-62
2021/06/28 01:05:19;;;;;;;8.87;6.93;;;;;;;22.41;58.00;97844.69;8254491;28;20223;-61
2021/06/28 01:09:22;;;;;;;7.20;6.50;;;;;;;22.40;58.66;97848.28;8254370;28;20232;-61
2021/06/28 01:13:26;;;;;;;8.30;7.00;;;;;;;22.37;58.84;97853.03;8254247;28;20249;-61
2021/06/28 01:17:30;;;;;;;8.07;7.20;;;;;;;22.28;59.13;97852.09;8254235;28;20446;-63
2021/06/28 01:21:34;;;;;;;6.80;5.90;;;;;;;22.38;58.20;97849.44;8254272;28;20226;-62
2021/06/28 01:25:38;;;;;;;9.17;6.97;;;;;;;22.17;58.94;97850.44;8253733;28;20369;-63
2021/06/28 01:29:42;;;;;;;7.87;6.60;;;;;;;22.16;59.45;97846.16;8253970;28;20297;-63
2021/06/28 01:33:45;;;;;;;7.77;6.97;;;;;;;22.20;59.58;97841.41;8253785;28;20203;-62
2021/06/28 01:37:48;;;;;;;8.23;7.10;;;;;;;22.21;59.21;97848.34;8253729;28;20210;-62
2021/06/28 01:41:52;;;;;;;13.03;7.23;;;;;;;22.13;59.45;97853.53;8252991;28;20213;-62
2021/06/28 01:45:55;;;;;;;11.30;6.37;;;;;;;22.15;59.11;97859.47;8252763;28;20219;-62
2021/06/28 01:49:58;;;;;;;8.30;6.20;;;;;;;22.10;59.32;97859.06;8252841;28;20415;-62
2021/06/28 01:54:01;;;;;;;7.23;6.53;;;;;;;22.04;59.48;97856.00;8252717;28;20210;-62
2021/06/28 01:58:07;;;;;;;7.90;6.20;;;;;;;21.74;60.49;97845.69;8252646;28;20214;-62
2021/06/28 02:02:09;;;;;;;10.30;6.50;;;;;;;21.91;60.29;97844.94;8252473;28;20202;-62
2021/06/28 02:06:12;;;;;;;8.70;5.80;;;;;;;22.04;59.87;97844.66;8252739;28;20232;-62
2021/06/28 02:10:15;;;;;;;7.87;5.87;;;;;;;21.99;59.95;97846.88;8251878;28;20249;-62
2021/06/28 02:14:20;;;;;;;8.70;6.57;;;;;;;22.00;59.86;97853.81;8251515;28;20207;-62
2021/06/28 02:18:24;;;;;;;8.80;6.30;;;;;;;22.04;59.50;97853.38;8251911;28;20213;-62
2021/06/28 02:22:26;;;;;;;8.80;6.30;;;;;;;21.97;59.36;97857.59;8251939;28;20203;-62
2021/06/28 02:26:29;;;;;;;7.57;6.30;;;;;;;22.01;59.16;97864.22;8251769;28;20210;-63
2021/06/28 02:30:33;;;;;;;10.23;6.83;;;;;;;21.97;59.38;97852.31;8251654;28;20230;-62
2021/06/28 02:34:36;;;;;;;9.43;6.80;;;;;;;21.99;58.89;97845.09;8251518;28;20202;-63
2021/06/28 02:38:40;;;;;;;7.50;6.80;;;;;;;21.96;59.73;97850.63;8251241;28;20206;-63
2021/06/28 02:42:43;;;;;;;8.23;7.20;;;;;;;21.99;59.30;97866.19;8251361;28;20226;-63
2021/06/28 02:46:47;;;;;;;8.13;6.97;;;;;;;21.99;59.11;97853.00;8251204;28;20398;-62
2021/06/28 02:50:51;;;;;;;8.10;7.33;;;;;;;21.97;59.01;97857.59;8250264;28;20433;-63
2021/06/28 02:54:54;;;;;;;9.80;7.57;;;;;;;21.99;59.28;97855.63;8251745;28;20206;-63
2021/06/28 02:58:57;;;;;;;7.93;7.13;;;;;;;21.97;59.02;97856.72;8251053;28;20208;-63
2021/06/28 03:03:01;;;;;;;10.20;6.83;;;;;;;21.95;58.70;97879.78;8250385;28;20203;-63
2021/06/28 03:07:04;;;;;;;7.97;6.80;;;;;;;21.81;59.15;97867.88;8250277;28;20232;-63
2021/06/28 03:11:07;;;;;;;9.23;6.50;;;;;;;21.91;58.72;97876.59;8249528;28;20467;-63
2021/06/28 03:15:13;;;;;;;8.87;6.50;;;;;;;21.92;58.96;97859.00;8250474;28;20209;-63
2021/06/28 03:19:17;;;;;;;7.00;6.40;;;;;;;21.63;59.36;97838.78;8250506;28;20215;-63
2021/06/28 03:23:20;;;;;;;7.10;6.40;;;;;;;21.83;59.12;97847.47;8250312;28;20387;-63
2021/06/28 03:27:23;;;;;;;7.67;6.87;;;;;;;21.88;59.30;97849.69;8250113;28;20216;-63
2021/06/28 03:31:27;;;;;;;8.07;6.83;;;;;;;21.86;58.60;97844.56;8250020;28;20235;-62
2021/06/28 03:35:31;;;;;;;10.00;7.00;;;;;;;21.86;59.01;97855.13;8248992;28;20201;-63
2021/06/28 03:39:35;;;;;;;12.73;6.93;;;;;;;21.73;59.32;97846.69;8249919;28;20217;-63
2021/06/28 03:43:37;;;;;;;8.10;6.50;;;;;;;21.88;59.28;97845.25;8249980;28;20389;-63
2021/06/28 03:47:41;;;;;;;7.93;7.13;;;;;;;21.87;59.27;97838.31;8249814;28;20223;-63
2021/06/28 03:51:45;;;;;;;9.80;7.20;;;;;;;21.76;59.72;97828.78;8249404;28;20301;-63
2021/06/28 03:55:48;;;;;;;10.67;7.83;;;;;;;21.59;59.89;97825.06;8249248;28;20398;-63
2021/06/28 03:59:51;;;;;;;8.97;7.83;;;;;;;21.76;59.66;97826.16;8249461;28;20513;-63
2021/06/28 04:03:54;;;;;;;8.77;7.73;;;;;;;21.76;59.80;97834.06;8249403;28;20204;-63
2021/06/28 04:07:58;;;;;;;8.97;7.83;;;;;;;21.72;59.99;97835.28;8249290;28;20224;-62
2021/06/28 04:12:01;;;;;;;8.83;7.80;;;;;;;21.92;59.32;97841.34;8248934;28;20549;-63
2021/06/28 04:16:04;;;;;;;9.80;7.50;;;;;;;22.17;59.26;97841.69;8249027;28;20203;-62
2021/06/28 04:20:09;;;;;;;9.87;7.67;;;;;;;21.74;60.48;97845.69;8248780;28;20209;-62
2021/06/28 04:24:13;;;;;;;9.53;7.47;;;;;;;21.90;60.46;97842.47;8253058;28;20212;-62
2021/06/28 04:28:16;;;;;;;9.47;7.57;;;;;;;22.04;60.05;97849.91;8254820;28;20213;-62
2021/06/28 04:32:19;;;;;;;9.93;7.43;;;;;;;22.05;59.68;97849.78;8254841;28;20226;-62
2021/06/28 04:36:22;;;;;;;8.30;7.47;;;;;;;22.03;60.04;97864.09;8254442;28;20209;-62
2021/06/28 04:40:27;;;;;;;10.10;6.77;;;;;;;22.30;59.02;97884.44;8255075;28;20210;-63
2021/06/28 04:44:30;;;;;;;7.00;5.97;;;;;;;22.44;59.82;97883.97;8255083;28;20371;-62
2021/06/28 04:48:32;;;;;;;8.53;6.30;;;;;;;22.62;58.95;97870.84;8255104;28;20209;-62
2021/06/28 04:52:36;;;;;;;12.00;7.20;;;;;;;22.66;58.22;97866.09;8255293;28;20285;-63
2021/06/28 04:56:40;;;;;;;7.30;6.30;;;;;;;22.75;59.24;97865.22;8256027;28;20202;-64
2021/06/28 05:00:43;;;;;;;7.77;6.67;;;;;;;22.82;58.02;97870.72;8255124;28;20208;-64
2021/06/28 05:04:47;;;;;;;9.17;7.10;;;;;;;22.73;57.71;97869.81;8254910;28;20400;-64
2021/06/28 05:08:50;;;;;;;12.47;6.20;;;;;;;22.79;58.70;97871.88;8254648;28;20389;-64
2021/06/28 05:12:54;;;;;;;8.70;6.60;;;;;;;22.50;57.39;97868.53;8252474;28;20238;-63
2021/06/28 05:16:57;;;;;;;7.60;6.90;;;;;;;22.29;57.92;97856.38;8255262;28;20203;-62
2021/06/28 05:21:00;;;;;;;7.70;7.00;;;;;;;22.28;58.12;97843.38;8254921;28;20206;-63
2021/06/28 05:25:03;;;;;;;8.47;7.27;;;;;;;22.09;58.66;97845.06;8254804;28;20205;-63
2021/06/28 05:29:08;;;;;;;9.90;7.53;;;;;;;22.01;59.24;97851.06;8255206;28;20205;-63
2021/06/28 05:33:10;;;;;;;7.53;6.70;;;;;;;22.08;59.56;97859.19;8254568;28;20252;-63
2021/06/28 05:37:13;;;;;;;8.57;7.17;;;;;;;22.16;58.99;97856.69;8254406;28;20206;-66
2021/06/28 05:41:17;;;;;;;7.33;6.73;;;;;;;22.42;58.07;97858.72;8253688;28;20417;-62
2021/06/28 05:45:21;;;;;;;7.47;6.77;;;;;;;22.56;57.70;97854.75;8253912;28;20210;-63
2021/06/28 05:49:23;;;;;;;8.30;7.50;;;;;;;22.55;57.78;97853.91;8254438;28;20202;-62
2021/06/28 05:53:26;;;;;;;8.27;7.50;;;;;;;22.53;57.91;97855.06;8254145;28;20512;-63
2021/06/28 05:57:29;;;;;;;7.53;6.67;;;;;;;22.84;56.88;97847.66;8253923;28;20205;-63
2021/06/28 06:01:33;;;;;;;9.50;6.77;;;;;;;22.92;56.67;97852.19;8253951;28;20209;-63
2021/06/28 06:05:36;;;;;;;7.63;6.37;;;;;;;23.05;56.77;97841.31;8253120;28;20248;-63
2021/06/28 06:09:40;;;;;;;7.07;6.20;;;;;;;23.15;55.81;97844.69;8251213;28;20249;-63
2021/06/28 06:13:45;;;;;;;9.50;7.00;;;;;;;23.15;56.23;97842.03;8221004;29;20209;-63
2021/06/28 06:17:50;;;;;;;7.43;6.73;;;;;;;23.13;56.23;97844.00;8220478;29;20345;-63
2021/06/28 06:21:54;;;;;;;7.77;7.07;;;;;;;22.99;56.76;97855.91;8220190;29;20273;-63
2021/06/28 06:25:56;;;;;;;9.97;6.73;;;;;;;23.49;56.24;97842.19;8220392;29;20210;-63
2021/06/28 06:29:59;;;;;;;7.53;6.90;;;;;;;23.75;55.79;97846.69;8220394;29;20519;-64
2021/06/28 06:34:04;;;;;;;7.37;6.67;;;;;;;23.53;55.41;97835.63;8220130;29;20203;-63
2021/06/28 06:38:07;;;;;;;8.10;6.43;;;;;;;23.58;55.98;97825.41;8220323;29;20212;-63
2021/06/28 06:42:10;;;;;;;8.17;7.10;;;;;;;23.80;54.77;97839.16;8219018;29;20202;-63
2021/06/28 06:46:13;;;;;;;6.93;6.33;;;;;;;24.11;54.21;97843.97;8219787;28;20229;-63
2021/06/28 06:50:18;;;;;;;7.27;6.57;;;;;;;23.61;55.59;97848.09;8219725;29;20229;-63
2021/06/28 06:54:21;;;;;;;8.10;6.63;;;;;;;24.17;54.71;97843.34;8219084;29;20196;-64
2021/06/28 06:58:23;;;;;;;7.67;6.87;;;;;;;24.36;53.58;97847.56;8219120;29;20214;-63
2021/06/28 07:02:26;;;;;;;7.27;6.40;;;;;;;24.51;54.13;97853.97;8219217;29;20199;-64
2021/06/28 07:06:30;;;;;;;7.30;5.87;;;;;;;24.44;53.17;97850.25;8216490;29;20249;-65
2021/06/28 07:10:33;;;;;;;9.30;6.17;;;;;;;24.82;52.50;97847.28;8218789;28;20243;-63
2021/06/28 07:14:37;;;;;;;9.73;6.27;;;;;;;24.92;52.32;97861.22;8218593;29;20210;-63
2021/06/28 07:18:40;;;;;;;10.13;5.90;;;;;;;25.24;52.16;97863.13;8218354;29;20211;-62
2021/06/28 07:22:45;;;;;;;12.20;6.40;;;;;;;25.41;51.34;97863.97;8215432;29;20219;-63
2021/06/28 07:26:47;;;;;;;9.87;7.37;;;;;;;25.35;51.45;97867.28;8218376;29;20199;-62
2021/06/28 07:30:50;;;;;;;9.03;6.90;;;;;;;25.59;50.57;97858.53;8218728;29;20556;-62
2021/06/28 07:34:53;;;;;;;10.13;6.70;;;;;;;25.86;49.98;97856.53;8218281;29;20219;-62
2021/06/28 07:39:02;;;;;;;9.73;6.57;;;;;;;26.13;49.27;97860.63;8218682;29;20232;-62
2021/06/28 07:43:05;;;;;;;7.80;7.00;;;;;;;26.47;48.86;97864.88;8218158;29;20207;-62
2021/06/28 07:47:09;;;;;;;11.27;6.53;;;;;;;26.74;48.36;97865.44;8217869;29;20223;-63
2021/06/28 07:51:11;;;;;;;6.67;5.60;;;;;;;27.04;48.40;97869.13;8218196;29;20234;-63
2021/06/28 07:55:18;;;;;;;7.07;5.63;;;;;;;27.35;46.40;97865.63;8218584;29;20211;-62
2021/06/28 07:59:22;;;;;;;5.87;5.13;;;;;;;27.61;45.55;97859.94;8226711;28;20212;-62
2021/06/28 08:03:25;;;;;;;6.50;5.23;;;;;;;27.59;44.76;97861.94;8228031;29;20381;-63
2021/06/28 08:07:28;;;;;;;11.83;5.93;;;;;;;27.34;44.87;97869.25;8228257;28;20223;-66
2021/06/28 08:11:38;;;;;;;8.03;5.73;;;;;;;27.99;44.82;97855.44;8223985;28;20557;-66
2021/06/28 08:15:41;;;;;;;5.67;5.10;;;;;;;27.99;43.52;97855.44;8222218;28;20201;-66
2021/06/28 08:19:46;;;;;;;7.10;5.90;;;;;;;28.22;42.60;97857.22;8228751;28;20218;-66
2021/06/28 08:23:49;;;;;;;7.70;4.80;;;;;;;28.55;42.29;97854.19;8228557;29;20240;-75
2021/06/28 08:27:53;;;;;;;10.03;5.63;;;;;;;28.42;42.57;97860.97;8228522;28;20203;-74
2021/06/28 08:31:56;;;;;;;5.53;4.90;;;;;;;28.84;41.14;97862.16;8228784;28;20253;-75
2021/06/28 08:35:59;;;;;;;6.70;4.33;;;;;;;28.89;41.30;97848.25;8228603;28;20228;-76
2021/06/28 08:40:02;;;;;;;5.07;4.37;;;;;;;28.83;41.25;97849.03;8228773;29;20211;-77
2021/06/28 08:44:08;;;;;;;5.80;4.30;;;;;;;28.82;40.22;97845.50;8228330;29;20222;-76
2021/06/28 08:48:11;;;;;;;4.13;3.73;;;;;;;28.93;40.07;97848.72;8206531;29;20209;-67
2021/06/28 08:52:14;;;;;;;4.60;4.20;;;;;;;29.30;39.71;97855.72;8196156;29;20480;-69
2021/06/28 08:56:17;;;;;;;5.93;3.90;;;;;;;29.75;38.92;97852.84;8196157;29;20212;-69
2021/06/28 09:00:21;;;;;;;6.60;4.30;;;;;;;29.75;37.76;97859.00;8196344;29;20205;-69
2021/06/28 09:04:24;;;;;;;4.70;3.70;;;;;;;29.78;37.14;97855.94;8195566;29;20216;-69
2021/06/28 09:08:27;;;;;;;5.47;3.40;;;;;;;29.94;37.04;97864.69;8194070;29;20246;-69
2021/06/28 09:12:30;;;;;;;6.83;3.60;;;;;;;30.17;36.94;97848.41;8214546;29;20246;-69
2021/06/28 09:16:36;;;;;;;3.53;3.23;;;;;;;29.92;36.59;97861.38;8222701;29;20206;-68
2021/06/28 09:20:39;;;;;;;4.00;3.50;;;;;;;29.98;35.87;97850.72;8222937;29;20281;-69
2021/06/28 09:24:50;;;;;;;4.90;3.80;;;;;;;30.51;35.78;97858.28;8222302;29;20502;-69
2021/06/28 09:28:53;;;;;;;5.90;3.87;;;;;;;30.59;36.27;97862.63;8222571;29;20206;-69
2021/06/28 09:32:59;;;;;;;5.33;3.77;;;;;;;30.45;35.38;97859.06;8221847;29;20229;-69
2021/06/28 09:37:02;;;;;;;4.00;3.60;;;;;;;31.03;35.51;97853.34;8250812;28;20216;-69
2021/06/28 09:41:23;;;;;;;4.20;3.73;;;;;;;30.97;34.42;97851.50;8253440;28;20213;-69
2021/06/28 09:45:28;;;;;;;4.03;3.63;;;;;;;30.92;34.85;97852.09;8253699;28;20214;-69
2021/06/28 09:49:32;;;;;;;7.40;3.80;;;;;;;31.15;34.16;97849.06;8253834;28;20361;-69
2021/06/28 09:53:35;;;;;;;5.00;3.60;;;;;;;30.94;34.60;97844.72;8253830;28;20322;-69
2021/06/28 09:57:38;;;;;;;7.87;3.77;;;;;;;30.93;34.69;97840.38;8253500;28;20222;-69
2021/06/28 10:01:41;;;;;;;7.30;3.47;;;;;;;31.36;34.46;97845.41;8254265;28;20208;-69
2021/06/28 10:05:59;;;;;;;6.00;3.60;;;;;;;31.61;34.57;97833.31;8254099;28;20229;-69
2021/06/28 10:10:25;;;;;;;4.93;3.30;;;;;;;31.02;33.83;97838.34;8254485;28;20241;-69
2021/06/28 10:14:28;;;;;;;4.90;3.53;;;;;;;31.05;34.41;97845.94;8250803;28;20233;-70
2021/06/28 10:18:31;;;;;;;4.77;3.90;;;;;;;31.30;34.24;97829.34;8253861;28;20222;-69
2021/06/28 10:22:36;;;;;;;3.97;3.40;;;;;;;31.24;33.61;97828.28;8253499;28;20603;-69
2021/06/28 10:26:39;;;;;;;3.97;3.10;;;;;;;31.11;34.81;97821.09;8253768;28;20213;-69
2021/06/28 10:30:42;;;;;;;6.30;3.53;;;;;;;30.54;34.62;97827.66;8253448;28;20205;-70
2021/06/28 10:34:51;;;;;;;3.87;3.47;;;;;;;30.17;36.21;97821.69;8253121;28;20230;-69
2021/06/28 10:38:57;;;;;;;4.53;3.53;;;;;;;30.67;34.88;97816.19;8253406;28;20215;-69
2021/06/28 10:42:59;;;;;;;6.70;3.50;;;;;;;30.79;36.19;97812.75;8253483;28;20233;-70
2021/06/28 10:47:08;;;;;;;3.37;3.07;;;;;;;31.11;33.75;97817.56;8253296;28;20222;-69
2021/06/28 10:51:12;;;;;;;6.70;2.87;;;;;;;31.36;33.37;97807.13;8252776;28;20200;-69
2021/06/28 10:55:40;;;;;;;3.40;3.10;;;;;;;31.64;33.23;97812.28;8252723;28;20210;-70
2021/06/28 10:59:44;;;;;;;4.10;2.80;;;;;;;31.34;33.17;97803.84;8252569;28;20520;-70
2021/06/28 11:04:04;;;;;;;4.13;2.90;;;;;;;31.55;32.38;97798.31;8252736;28;20228;-69
2021/06/28 11:08:20;;;;;;;2.70;2.40;;;;;;;30.51;33.63;97804.03;8252657;28;20226;-69
2021/06/28 11:12:32;;;;;;;2.90;2.60;;;;;;;31.17;32.69;97804.22;8252500;28;20250;-68
2021/06/28 11:16:35;;;;;;;3.40;2.30;;;;;;;31.36;32.14;97796.44;8252511;28;20204;-69
2021/06/28 11:20:39;;;;;;;2.50;2.30;;;;;;;31.72;32.29;97789.84;8251817;28;20203;-69
2021/06/28 11:24:57;;;;;;;4.30;2.57;;;;;;;31.59;32.12;97787.19;8251794;28;20239;-68
2021/06/28 11:29:01;;;;;;;5.23;2.40;;;;;;;31.56;31.32;97780.41;8251632;28;20485;-69
2021/06/28 11:33:07;;;;;;;7.10;2.57;;;;;;;31.66;32.38;97786.16;8250920;28;20230;-69
2021/06/28 11:37:10;;;;;;;3.03;2.40;;;;;;;31.90;31.55;97779.31;8251482;28;20496;-69
2021/06/28 11:41:18;;;;;;;3.60;2.50;;;;;;;31.83;31.34;97785.72;8251410;28;20211;-69
2021/06/28 11:45:22;;;;;;;3.13;2.53;;;;;;;31.82;31.67;97776.06;8251598;28;20480;-69
2021/06/28 11:49:26;;;;;;;2.97;2.67;;;;;;;31.79;31.76;97771.09;8251229;28;20205;-69
2021/06/28 11:53:29;;;;;;;3.70;2.00;;;;;;;31.88;32.65;97769.84;8249964;28;20236;-70
2021/06/28 11:57:32;;;;;;;2.70;2.50;;;;;;;32.08;30.37;97772.50;8250042;28;20197;-69
2021/06/28 12:01:38;;;;;;;2.57;2.30;;;;;;;32.28;30.73;97777.81;8250942;28;20205;-69
2021/06/28 12:05:43;;;;;;;3.97;2.50;;;;;;;32.45;30.82;97765.56;8250583;28;20227;-69
2021/06/28 12:09:49;;;;;;;3.23;2.60;;;;;;;32.65;30.54;97759.31;8248331;28;20370;-69
2021/06/28 12:13:52;;;;;;;2.60;2.40;;;;;;;32.58;30.92;97756.69;8251287;28;20313;-69
2021/06/28 12:17:56;;;;;;;4.57;2.40;;;;;;;32.24;30.44;97760.53;8250999;28;20275;-69
2021/06/28 12:21:58;;;;;;;5.27;2.60;;;;;;;31.90;30.83;97751.72;8250236;28;20203;-69
2021/06/28 12:26:09;;;;;;;4.97;2.70;;;;;;;32.19;31.20;97755.78;8250297;28;20201;-78
2021/06/28 12:30:18;;;;;;;4.97;2.33;;;;;;;32.50;30.12;97748.84;8248385;28;20209;-79
2021/06/28 12:34:23;;;;;;;7.90;2.30;;;;;;;31.91;30.15;97746.16;8250072;28;20229;-79
2021/06/28 12:38:26;;;;;;;2.70;2.43;;;;;;;31.50;30.45;97744.59;8250221;28;20208;-80
2021/06/28 12:42:29;;;;;;;4.33;2.53;;;;;;;32.18;29.87;97743.44;8241165;28;20205;-70
2021/06/28 12:46:32;;;;;;;7.47;3.00;;;;;;;32.61;30.43;97736.66;8255356;28;20238;-69
2021/06/28 12:50:38;;;;;;;4.47;2.67;;;;;;;32.44;29.83;97745.16;8252979;28;20230;-70
2021/06/28 12:54:42;;;;;;;5.63;2.33;;;;;;;32.63;30.62;97743.44;8255499;28;20227;-70
2021/06/28 12:58:52;;;;;;;3.60;2.53;;;;;;;32.46;28.71;97744.94;8255445;28;20209;-70
2021/06/28 13:02:58;;;;;;;3.33;2.30;;;;;;;32.07;29.55;97742.22;8256239;28;20211;-69
2021/06/28 13:07:02;;;;;;;3.50;2.37;;;;;;;32.20;30.52;97749.41;8255590;28;20233;-70
2021/06/28 13:11:09;;;;;;;3.03;2.43;;;;;;;32.16;30.62;97745.50;8256155;28;20372;-70
2021/06/28 13:15:20;;;;;;;3.77;2.33;;;;;;;32.60;29.41;97749.25;8254047;28;20239;-70
2021/06/28 13:19:29;;;;;;;4.43;2.37;;;;;;;32.70;30.21;97743.41;8255679;28;20196;-70
2021/06/28 13:23:33;;;;;;;3.07;2.27;;;;;;;32.64;29.40;97741.59;8252473;28;20209;-70
2021/06/28 13:27:37;;;;;;;7.93;2.27;;;;;;;32.10;30.48;97741.81;8254548;28;20202;-71
2021/06/28 13:31:57;;;;;;;2.53;2.20;;;;;;;32.50;28.21;97738.13;8254630;28;20213;-70
2021/06/28 13:36:12;;;;;;;2.60;2.30;;;;;;;32.36;28.62;97733.88;8255112;28;20199;-70
2021/06/28 13:40:19;;;;;;;2.17;1.97;;;;;;;32.38;29.19;97726.44;8255680;28;20523;-70
2021/06/28 13:44:22;;;;;;;2.27;2.07;;;;;;;32.75;29.33;97732.03;8255217;28;20207;-70
2021/06/28 13:48:27;;;;;;;2.47;2.30;;;;;;;32.83;29.09;97737.16;8254481;28;20198;-71
2021/06/28 13:52:30;;;;;;;5.60;2.23;;;;;;;32.74;28.46;97725.84;8254758;28;20236;-71
2021/06/28 13:56:34;;;;;;;3.40;2.10;;;;;;;32.58;28.13;97729.88;8253291;28;20220;-71
2021/06/28 14:00:39;;;;;;;3.00;2.53;;;;;;;32.08;28.84;97724.28;8254254;28;20203;-70
2021/06/28 14:04:43;;;;;;;2.60;2.30;;;;;;;32.20;29.63;97725.28;8254145;28;20218;-71
2021/06/28 14:08:45;;;;;;;4.57;2.20;;;;;;;32.19;29.62;97718.28;8252765;28;20240;-71
2021/06/28 14:12:50;;;;;;;2.43;2.23;;;;;;;32.06;30.19;97721.00;8253481;28;20243;-70
2021/06/28 14:16:52;;;;;;;3.50;2.07;;;;;;;31.71;28.90;97718.63;8253857;28;20199;-72
2021/06/28 14:20:55;;;;;;;2.87;1.97;;;;;;;31.80;29.78;97713.88;8253778;28;20205;-72
2021/06/28 14:24:58;;;;;;;3.00;2.20;;;;;;;31.76;29.27;97713.47;8253672;28;20493;-75
2021/06/28 14:29:02;;;;;;;2.60;2.37;;;;;;;32.20;29.58;97700.38;8253387;28;20242;-72
2021/06/28 14:33:06;;;;;;;2.67;2.40;;;;;;;32.39;29.71;97702.13;8253245;28;20228;-72
2021/06/28 14:37:09;;;;;;;3.53;3.23;;;;;;;31.71;30.83;97703.38;8252871;28;20247;-71
2021/06/28 14:41:12;;;;;;;4.73;2.67;;;;;;;31.68;31.49;97701.13;8252899;28;20499;-70
2021/06/28 14:45:17;;;;;;;4.17;3.00;;;;;;;31.59;31.54;97690.84;8252688;28;20274;-72
2021/06/28 14:49:20;;;;;;;3.33;2.40;;;;;;;31.63;31.71;97698.25;8252616;28;20274;-70
2021/06/28 14:53:22;;;;;;;5.70;2.63;;;;;;;31.81;31.34;97689.53;8252295;28;20232;-70
2021/06/28 14:57:25;;;;;;;4.93;2.60;;;;;;;31.77;31.55;97685.66;8252286;28;20412;-70
2021/06/28 15:01:29;;;;;;;9.53;3.60;;;;;;;31.51;32.06;97679.34;8251777;28;20243;-70
2021/06/28 15:05:34;;;;;;;7.67;3.37;;;;;;;32.06;32.66;97673.66;8247757;28;20215;-70
2021/06/28 15:09:37;;;;;;;4.63;2.40;;;;;;;31.73;31.64;97673.72;8247412;28;20200;-70
2021/06/28 15:13:40;;;;;;;5.00;2.70;;;;;;;32.11;32.38;97673.81;8251912;28;20233;-70
2021/06/28 15:17:45;;;;;;;4.13;2.63;;;;;;;31.89;31.15;97678.63;8251901;28;20202;-70
2021/06/28 15:21:48;;;;;;;5.53;2.77;;;;;;;31.78;30.76;97671.25;8251516;28;20206;-70
2021/06/28 15:25:51;;;;;;;4.70;2.70;;;;;;;32.22;31.33;97660.81;8251226;28;20310;-70
2021/06/28 15:29:54;;;;;;;2.87;2.63;;;;;;;32.20;32.48;97657.50;8251181;28;20209;-70
2021/06/28 15:34:15;;;;;;;4.23;2.60;;;;;;;31.75;32.07;97653.72;8251411;28;20256;-69
2021/06/28 15:38:18;;;;;;;3.33;2.40;;;;;;;31.70;31.86;97650.03;8251072;28;20229;-70
2021/06/28 15:42:21;;;;;;;3.20;2.40;;;;;;;31.67;33.14;97653.97;8251023;28;20214;-69
2021/06/28 15:46:24;;;;;;;8.77;2.60;;;;;;;31.65;32.55;97648.03;8250552;28;20213;-70
2021/06/28 15:50:28;;;;;;;4.27;2.50;;;;;;;31.79;32.95;97647.97;8250943;28;20214;-70
2021/06/28 15:54:31;;;;;;;12.80;2.50;;;;;;;31.71;33.25;97635.66;8250902;28;20233;-69
2021/06/28 15:58:34;;;;;;;3.57;2.50;;;;;;;31.34;33.28;97632.63;8250883;28;20215;-69
2021/06/28 16:02:37;;;;;;;2.70;2.50;;;;;;;31.10;34.19;97623.41;8249730;28;20211;-70
2021/06/28 16:06:42;;;;;;;3.07;2.77;;;;;;;31.38;34.53;97621.31;8250423;28;20214;-69
2021/06/28 16:10:45;;;;;;;6.63;2.83;;;;;;;31.27;35.91;97611.25;8250316;28;20227;-70
2021/06/28 16:14:48;;;;;;;6.47;2.83;;;;;;;31.42;36.08;97610.19;8250557;28;20231;-70
2021/06/28 16:18:50;;;;;;;3.70;2.80;;;;;;;31.07;35.13;97592.56;8252696;28;20206;-70
2021/06/28 16:22:55;;;;;;;4.10;2.60;;;;;;;31.18;35.52;97586.56;8257013;28;20391;-70
2021/06/28 16:26:58;;;;;;;5.83;2.80;;;;;;;31.30;35.25;97588.59;8256750;28;20205;-70
2021/06/28 16:31:01;;;;;;;3.27;2.97;;;;;;;31.26;35.67;97577.50;8256822;28;20204;-70
2021/06/28 16:35:04;;;;;;;4.80;3.00;;;;;;;31.16;35.00;97583.28;8256685;28;20251;-70
2021/06/28 16:39:08;;;;;;;3.10;2.90;;;;;;;31.22;34.73;97567.44;8256279;28;20394;-70
2021/06/28 16:43:11;;;;;;;3.10;2.80;;;;;;;31.14;34.36;97560.47;8256048;28;20209;-71
2021/06/28 16:47:14;;;;;;;10.47;2.87;;;;;;;30.89;35.05;97558.41;8253036;28;20552;-70
2021/06/28 16:51:23;;;;;;;6.83;2.80;;;;;;;30.86;35.08;97556.16;8255524;28;20194;-70
2021/06/28 16:55:29;;;;;;;3.50;3.20;;;;;;;30.84;35.57;97544.03;8255261;28;20224;-69
2021/06/28 16:59:31;;;;;;;3.47;2.90;;;;;;;30.78;35.62;97545.69;8255355;28;20195;-69
2021/06/28 17:03:34;;;;;;;4.20;2.70;;;;;;;30.52;36.42;97539.34;8252698;28;20205;-70
2021/06/28 17:07:37;;;;;;;3.30;3.00;;;;;;;30.37;37.01;97534.19;8255107;28;20328;-69
2021/06/28 17:11:46;;;;;;;4.97;3.03;;;;;;;30.40;36.60;97536.44;8254677;28;20226;-69
2021/06/28 17:15:51;;;;;;;8.00;2.93;;;;;;;30.28;37.07;97542.59;8254936;28;20222;-70
2021/06/28 17:19:55;;;;;;;4.23;3.10;;;;;;;30.06;37.09;97544.59;8249543;28;20228;-68
2021/06/28 17:23:59;;;;;;;7.93;3.47;;;;;;;29.86;37.44;97549.91;8255084;28;20202;-67
2021/06/28 17:28:04;;;;;;;3.33;3.03;;;;;;;29.74;38.02;97549.63;8254942;28;20202;-67
2021/06/28 17:32:08;;;;;;;4.50;3.33;;;;;;;29.62;38.35;97560.03;8253818;28;20509;-67
2021/06/28 17:36:11;;;;;;;11.40;3.57;;;;;;;29.59;37.79;97549.78;8254997;28;20579;-67
2021/06/28 17:40:14;;;;;;;3.83;3.07;;;;;;;29.42;38.43;97542.13;8236537;28;20318;-67
2021/06/28 17:44:19;;;;;;;6.23;2.90;;;;;;;29.31;38.90;97540.00;8222302;29;20201;-68
2021/06/28 17:48:22;;;;;;;4.43;2.73;;;;;;;29.37;38.61;97533.06;8222298;29;20204;-68
2021/06/28 17:52:25;;;;;;;3.93;3.10;;;;;;;29.17;38.44;97527.66;8221641;29;20217;-68
2021/06/28 17:56:28;;;;;;;4.43;3.00;;;;;;;29.20;38.77;97532.56;8221752;29;20235;-68
2021/06/28 18:00:33;;;;;;;3.57;3.20;;;;;;;29.00;38.13;97517.28;8221551;29;20278;-68
2021/06/28 18:04:39;;;;;;;6.07;3.07;;;;;;;28.95;37.99;97513.53;8244894;28;20241;-68
2021/06/28 18:08:42;;;;;;;3.30;2.80;;;;;;;29.02;38.37;97501.09;8253150;28;20229;-69
2021/06/28 18:12:45;;;;;;;4.57;2.70;;;;;;;29.03;38.74;97503.56;8253165;28;20244;-69
2021/06/28 18:16:49;;;;;;;3.73;2.77;;;;;;;28.99;38.67;97509.47;8253180;28;20242;-68
2021/06/28 18:20:52;;;;;;;3.97;2.80;;;;;;;28.90;39.73;97511.47;8243956;28;20210;-69
2021/06/28 18:25:11;;;;;;;3.80;2.80;;;;;;;28.85;40.39;97500.56;8235584;28;20250;-69
2021/06/28 18:29:14;;;;;;;4.13;2.90;;;;;;;28.54;39.77;97501.81;8252968;28;20206;-69
2021/06/28 18:33:19;;;;;;;3.23;2.93;;;;;;;28.52;40.11;97497.69;8252541;28;20206;-69
2021/06/28 18:37:21;;;;;;;3.20;2.90;;;;;;;28.52;39.92;97495.00;8252235;28;20243;-69
2021/06/28 18:41:32;;;;;;;4.67;2.93;;;;;;;28.48;40.22;97502.53;8252104;28;20280;-69
2021/06/28 18:45:34;;;;;;;3.00;2.80;;;;;;;28.42;40.30;97492.66;8246634;28;20239;-68
2021/06/28 18:49:39;;;;;;;3.27;2.83;;;;;;;28.40;41.07;97497.34;8252151;28;20210;-68
2021/06/28 18:53:43;;;;;;;3.53;3.23;;;;;;;28.31;41.89;97504.69;8251374;28;20240;-69
2021/06/28 18:57:46;;;;;;;4.27;3.43;;;;;;;28.22;42.43;97511.16;8251448;28;20238;-69
2021/06/28 19:01:51;;;;;;;9.30;3.13;;;;;;;28.19;42.68;97508.84;8251264;28;20210;-69
2021/06/28 19:05:55;;;;;;;3.50;3.20;;;;;;;28.18;42.24;97501.88;8250713;28;20533;-69